CTS weather

New Chitose Airport
Chitose / Tomakomai, Hokkaidō Prefecture, Japan

Public forecast

Using degrees Celsius for public forecast. Weather courtesy of forecast.io.

METAR (pilot weather report)

Retrieved 2019/04/21 21:30 UTC (13 minutes ago):

RJCC 212130Z 18003KT 150V220 9999 FEW030 07/03 Q1013

TAF (pilot weather forecast)

Retrieved 2019/04/21 18:37 UTC (3 hours ago):

TAF RJCC 211705Z 2118/2300 23004KT 9999 FEW040 TEMPO 2118/2121 FEW003 BKN006 BECMG 2122/2200 35018KT TEMPO 2200/2206 35020G30KT BECMG 2215/2218 17011KT